sensor_id;sensor_type;location;lat;lon;timestamp;P1;P2;P0
70570;PMS5003;58135;50.948;-1.458;2022-08-23T00:00:23;10;9;
70570;PMS5003;58135;50.948;-1.458;2022-08-23T00:02:49;8;7;
70570;PMS5003;58135;50.948;-1.458;2022-08-23T00:05:14;12;10;
70570;PMS5003;58135;50.948;-1.458;2022-08-23T00:07:40;12;11;
70570;PMS5003;58135;50.948;-1.458;2022-08-23T00:10:06;11;10;
70570;PMS5003;58135;50.948;-1.458;2022-08-23T00:12:30;9;9;
70570;PMS5003;58135;50.948;-1.458;2022-08-23T00:14:55;10;10;
70570;PMS5003;58135;50.948;-1.458;2022-08-23T00:17:21;13;13;
70570;PMS5003;58135;50.948;-1.458;2022-08-23T00:19:47;10;9;
70570;PMS5003;58135;50.948;-1.458;2022-08-23T00:22:12;9;9;
70570;PMS5003;58135;50.948;-1.458;2022-08-23T00:24:38;11;10;
70570;PMS5003;58135;50.948;-1.458;2022-08-23T00:27:04;9;9;
70570;PMS5003;58135;50.948;-1.458;2022-08-23T00:29:29;10;10;
70570;PMS5003;58135;50.948;-1.458;2022-08-23T00:31:54;12;11;
70570;PMS5003;58135;50.948;-1.458;2022-08-23T00:34:19;11;11;
70570;PMS5003;58135;50.948;-1.458;2022-08-23T00:36:45;11;11;
70570;PMS5003;58135;50.948;-1.458;2022-08-23T00:39:10;12;10;
70570;PMS5003;58135;50.948;-1.458;2022-08-23T00:41:36;11;11;
70570;PMS5003;58135;50.948;-1.458;2022-08-23T00:44:02;9;9;
70570;PMS5003;58135;50.948;-1.458;2022-08-23T00:46:31;12;11;
70570;PMS5003;58135;50.948;-1.458;2022-08-23T00:48:53;11;11;
70570;PMS5003;58135;50.948;-1.458;2022-08-23T00:51:19;12;11;
70570;PMS5003;58135;50.948;-1.458;2022-08-23T00:53:45;9;9;
70570;PMS5003;58135;50.948;-1.458;2022-08-23T00:56:10;14;12;
70570;PMS5003;58135;50.948;-1.458;2022-08-23T00:58:35;8;8;
70570;PMS5003;58135;50.948;-1.458;2022-08-23T01:01:00;11;11;
70570;PMS5003;58135;50.948;-1.458;2022-08-23T01:03:27;11;10;
70570;PMS5003;58135;50.948;-1.458;2022-08-23T01:05:52;10;8;
70570;PMS5003;58135;50.948;-1.458;2022-08-23T01:08:16;9;9;
70570;PMS5003;58135;50.948;-1.458;2022-08-23T01:10:42;11;10;
70570;PMS5003;58135;50.948;-1.458;2022-08-23T01:13:08;10;9;
70570;PMS5003;58135;50.948;-1.458;2022-08-23T01:15:35;9;8;
70570;PMS5003;58135;50.948;-1.458;2022-08-23T01:18:00;13;12;
70570;PMS5003;58135;50.948;-1.458;2022-08-23T01:20:23;9;9;
70570;PMS5003;58135;50.948;-1.458;2022-08-23T01:22:52;11;9;
70570;PMS5003;58135;50.948;-1.458;2022-08-23T01:25:15;9;9;
70570;PMS5003;58135;50.948;-1.458;2022-08-23T01:27:39;10;10;
70570;PMS5003;58135;50.948;-1.458;2022-08-23T01:30:05;9;9;
70570;PMS5003;58135;50.948;-1.458;2022-08-23T01:32:29;13;13;
70570;PMS5003;58135;50.948;-1.458;2022-08-23T01:34:55;11;10;
70570;PMS5003;58135;50.948;-1.458;2022-08-23T01:37:20;13;12;
70570;PMS5003;58135;50.948;-1.458;2022-08-23T01:39:45;9;9;
70570;PMS5003;58135;50.948;-1.458;2022-08-23T01:42:10;10;10;
70570;PMS5003;58135;50.948;-1.458;2022-08-23T01:44:36;9;9;
70570;PMS5003;58135;50.948;-1.458;2022-08-23T01:47:01;10;10;
70570;PMS5003;58135;50.948;-1.458;2022-08-23T01:49:26;12;12;
70570;PMS5003;58135;50.948;-1.458;2022-08-23T01:51:52;8;8;
70570;PMS5003;58135;50.948;-1.458;2022-08-23T01:54:17;14;13;
70570;PMS5003;58135;50.948;-1.458;2022-08-23T01:56:42;15;15;
70570;PMS5003;58135;50.948;-1.458;2022-08-23T01:59:08;14;13;
70570;PMS5003;58135;50.948;-1.458;2022-08-23T02:01:33;11;10;
70570;PMS5003;58135;50.948;-1.458;2022-08-23T02:03:58;12;10;
70570;PMS5003;58135;50.948;-1.458;2022-08-23T02:06:23;11;11;
70570;PMS5003;58135;50.948;-1.458;2022-08-23T02:08:49;11;10;
70570;PMS5003;58135;50.948;-1.458;2022-08-23T02:11:16;10;10;
70570;PMS5003;58135;50.948;-1.458;2022-08-23T02:13:39;7;7;
70570;PMS5003;58135;50.948;-1.458;2022-08-23T02:16:05;10;10;
70570;PMS5003;58135;50.948;-1.458;2022-08-23T02:18:30;8;8;
70570;PMS5003;58135;50.948;-1.458;2022-08-23T02:20:56;11;11;
70570;PMS5003;58135;50.948;-1.458;2022-08-23T02:23:21;11;9;
70570;PMS5003;58135;50.948;-1.458;2022-08-23T02:25:47;8;8;
70570;PMS5003;58135;50.948;-1.458;2022-08-23T02:28:12;9;9;
70570;PMS5003;58135;50.948;-1.458;2022-08-23T02:30:38;9;9;
70570;PMS5003;58135;50.948;-1.458;2022-08-23T02:33:03;11;10;
70570;PMS5003;58135;50.948;-1.458;2022-08-23T02:35:29;12;12;
70570;PMS5003;58135;50.948;-1.458;2022-08-23T02:37:54;8;8;
70570;PMS5003;58135;50.948;-1.458;2022-08-23T02:40:20;11;11;
70570;PMS5003;58135;50.948;-1.458;2022-08-23T02:42:46;12;12;
70570;PMS5003;58135;50.948;-1.458;2022-08-23T02:45:11;10;10;
70570;PMS5003;58135;50.948;-1.458;2022-08-23T02:47:36;10;10;
70570;PMS5003;58135;50.948;-1.458;2022-08-23T02:50:02;9;8;
70570;PMS5003;58135;50.948;-1.458;2022-08-23T02:52:27;13;11;
70570;PMS5003;58135;50.948;-1.458;2022-08-23T02:54:53;8;8;
70570;PMS5003;58135;50.948;-1.458;2022-08-23T02:57:19;11;11;
70570;PMS5003;58135;50.948;-1.458;2022-08-23T02:59:44;13;13;
70570;PMS5003;58135;50.948;-1.458;2022-08-23T03:02:10;12;10;
70570;PMS5003;58135;50.948;-1.458;2022-08-23T03:04:35;7;7;
70570;PMS5003;58135;50.948;-1.458;2022-08-23T03:07:00;8;8;
70570;PMS5003;58135;50.948;-1.458;2022-08-23T03:09:26;11;11;
70570;PMS5003;58135;50.948;-1.458;2022-08-23T03:11:51;9;9;
70570;PMS5003;58135;50.948;-1.458;2022-08-23T03:14:17;11;11;
70570;PMS5003;58135;50.948;-1.458;2022-08-23T03:16:42;7;7;
70570;PMS5003;58135;50.948;-1.458;2022-08-23T03:19:08;7;7;
70570;PMS5003;58135;50.948;-1.458;2022-08-23T03:21:33;9;9;
70570;PMS5003;58135;50.948;-1.458;2022-08-23T03:23:58;9;9;
70570;PMS5003;58135;50.948;-1.458;2022-08-23T03:26:23;7;7;
70570;PMS5003;58135;50.948;-1.458;2022-08-23T03:28:50;8;8;
70570;PMS5003;58135;50.948;-1.458;2022-08-23T03:31:15;9;9;
70570;PMS5003;58135;50.948;-1.458;2022-08-23T03:33:40;9;9;
70570;PMS5003;58135;50.948;-1.458;2022-08-23T03:36:06;9;9;
70570;PMS5003;58135;50.948;-1.458;2022-08-23T03:38:31;7;7;
70570;PMS5003;58135;50.948;-1.458;2022-08-23T03:40:56;8;8;
70570;PMS5003;58135;50.948;-1.458;2022-08-23T03:43:22;8;8;
70570;PMS5003;58135;50.948;-1.458;2022-08-23T03:45:49;7;7;
70570;PMS5003;58135;50.948;-1.458;2022-08-23T03:48:13;8;8;
70570;PMS5003;58135;50.948;-1.458;2022-08-23T03:50:38;7;7;
70570;PMS5003;58135;50.948;-1.458;2022-08-23T03:53:03;6;6;
70570;PMS5003;58135;50.948;-1.458;2022-08-23T03:55:29;8;7;
70570;PMS5003;58135;50.948;-1.458;2022-08-23T03:57:54;9;9;
70570;PMS5003;58135;50.948;-1.458;2022-08-23T04:00:21;10;10;
70570;PMS5003;58135;50.948;-1.458;2022-08-23T04:02:46;8;8;
70570;PMS5003;58135;50.948;-1.458;2022-08-23T04:05:10;8;7;
70570;PMS5003;58135;50.948;-1.458;2022-08-23T04:07:36;9;8;
70570;PMS5003;58135;50.948;-1.458;2022-08-23T04:10:01;8;7;
70570;PMS5003;58135;50.948;-1.458;2022-08-23T04:12:27;8;8;
70570;PMS5003;58135;50.948;-1.458;2022-08-23T04:14:52;7;7;
70570;PMS5003;58135;50.948;-1.458;2022-08-23T04:17:18;12;12;
70570;PMS5003;58135;50.948;-1.458;2022-08-23T04:19:43;9;9;
70570;PMS5003;58135;50.948;-1.458;2022-08-23T04:22:10;6;6;
70570;PMS5003;58135;50.948;-1.458;2022-08-23T04:24:34;8;8;
70570;PMS5003;58135;50.948;-1.458;2022-08-23T04:27:00;10;10;
70570;PMS5003;58135;50.948;-1.458;2022-08-23T04:29:25;10;9;
70570;PMS5003;58135;50.948;-1.458;2022-08-23T04:31:51;12;10;
70570;PMS5003;58135;50.948;-1.458;2022-08-23T04:34:16;9;9;
70570;PMS5003;58135;50.948;-1.458;2022-08-23T04:36:42;8;8;
70570;PMS5003;58135;50.948;-1.458;2022-08-23T04:39:07;9;8;
70570;PMS5003;58135;50.948;-1.458;2022-08-23T04:41:32;10;9;
70570;PMS5003;58135;50.948;-1.458;2022-08-23T04:43:58;10;10;
70570;PMS5003;58135;50.948;-1.458;2022-08-23T04:46:23;7;7;
70570;PMS5003;58135;50.948;-1.458;2022-08-23T04:48:49;10;9;
70570;PMS5003;58135;50.948;-1.458;2022-08-23T04:51:15;12;11;
70570;PMS5003;58135;50.948;-1.458;2022-08-23T04:53:40;8;8;
70570;PMS5003;58135;50.948;-1.458;2022-08-23T04:56:05;8;8;
70570;PMS5003;58135;50.948;-1.458;2022-08-23T04:58:31;9;9;
70570;PMS5003;58135;50.948;-1.458;2022-08-23T05:00:56;7;7;
70570;PMS5003;58135;50.948;-1.458;2022-08-23T05:03:22;11;9;
70570;PMS5003;58135;50.948;-1.458;2022-08-23T05:05:47;9;9;
70570;PMS5003;58135;50.948;-1.458;2022-08-23T05:08:12;9;9;
70570;PMS5003;58135;50.948;-1.458;2022-08-23T05:10:38;15;12;
70570;PMS5003;58135;50.948;-1.458;2022-08-23T05:13:03;9;9;
70570;PMS5003;58135;50.948;-1.458;2022-08-23T05:15:28;11;9;
70570;PMS5003;58135;50.948;-1.458;2022-08-23T05:17:54;11;10;
70570;PMS5003;58135;50.948;-1.458;2022-08-23T05:20:20;10;10;
70570;PMS5003;58135;50.948;-1.458;2022-08-23T05:22:45;8;8;
70570;PMS5003;58135;50.948;-1.458;2022-08-23T05:25:10;10;9;
70570;PMS5003;58135;50.948;-1.458;2022-08-23T05:27:36;9;8;
70570;PMS5003;58135;50.948;-1.458;2022-08-23T05:30:01;10;10;
70570;PMS5003;58135;50.948;-1.458;2022-08-23T05:32:27;8;7;
70570;PMS5003;58135;50.948;-1.458;2022-08-23T05:34:52;8;8;
70570;PMS5003;58135;50.948;-1.458;2022-08-23T05:37:18;12;10;
70570;PMS5003;58135;50.948;-1.458;2022-08-23T05:39:44;9;9;
70570;PMS5003;58135;50.948;-1.458;2022-08-23T05:42:10;11;10;
70570;PMS5003;58135;50.948;-1.458;2022-08-23T05:44:34;7;6;
70570;PMS5003;58135;50.948;-1.458;2022-08-23T05:47:00;8;8;
70570;PMS5003;58135;50.948;-1.458;2022-08-23T05:49:25;7;7;
70570;PMS5003;58135;50.948;-1.458;2022-08-23T05:51:51;8;8;
70570;PMS5003;58135;50.948;-1.458;2022-08-23T05:54:16;9;8;
70570;PMS5003;58135;50.948;-1.458;2022-08-23T05:56:43;14;12;
70570;PMS5003;58135;50.948;-1.458;2022-08-23T05:59:09;8;8;
70570;PMS5003;58135;50.948;-1.458;2022-08-23T06:01:33;8;7;
70570;PMS5003;58135;50.948;-1.458;2022-08-23T06:03:59;7;7;
70570;PMS5003;58135;50.948;-1.458;2022-08-23T06:06:24;7;7;
70570;PMS5003;58135;50.948;-1.458;2022-08-23T06:08:50;8;7;
70570;PMS5003;58135;50.948;-1.458;2022-08-23T06:11:16;11;9;
70570;PMS5003;58135;50.948;-1.458;2022-08-23T06:13:41;8;7;
70570;PMS5003;58135;50.948;-1.458;2022-08-23T06:16:06;8;7;
70570;PMS5003;58135;50.948;-1.458;2022-08-23T06:18:32;9;8;
70570;PMS5003;58135;50.948;-1.458;2022-08-23T06:20:58;9;9;
70570;PMS5003;58135;50.948;-1.458;2022-08-23T06:23:23;8;8;
70570;PMS5003;58135;50.948;-1.458;2022-08-23T06:25:48;8;7;
70570;PMS5003;58135;50.948;-1.458;2022-08-23T06:28:13;9;9;
70570;PMS5003;58135;50.948;-1.458;2022-08-23T06:30:39;9;9;
70570;PMS5003;58135;50.948;-1.458;2022-08-23T06:33:04;12;11;
70570;PMS5003;58135;50.948;-1.458;2022-08-23T06:35:30;12;11;
70570;PMS5003;58135;50.948;-1.458;2022-08-23T06:37:55;9;9;
70570;PMS5003;58135;50.948;-1.458;2022-08-23T06:40:21;12;12;
70570;PMS5003;58135;50.948;-1.458;2022-08-23T06:42:47;9;8;
70570;PMS5003;58135;50.948;-1.458;2022-08-23T06:45:12;18;18;
70570;PMS5003;58135;50.948;-1.458;2022-08-23T06:47:38;11;11;
70570;PMS5003;58135;50.948;-1.458;2022-08-23T06:50:04;13;13;
70570;PMS5003;58135;50.948;-1.458;2022-08-23T06:52:29;7;7;
70570;PMS5003;58135;50.948;-1.458;2022-08-23T06:54:55;17;17;
70570;PMS5003;58135;50.948;-1.458;2022-08-23T06:57:21;14;13;
70570;PMS5003;58135;50.948;-1.458;2022-08-23T06:59:47;10;10;
70570;PMS5003;58135;50.948;-1.458;2022-08-23T07:02:11;20;18;
70570;PMS5003;58135;50.948;-1.458;2022-08-23T07:04:37;7;7;
70570;PMS5003;58135;50.948;-1.458;2022-08-23T07:07:03;9;9;
70570;PMS5003;58135;50.948;-1.458;2022-08-23T07:09:28;6;5;
70570;PMS5003;58135;50.948;-1.458;2022-08-23T07:11:54;10;8;
70570;PMS5003;58135;50.948;-1.458;2022-08-23T07:14:19;10;10;
70570;PMS5003;58135;50.948;-1.458;2022-08-23T07:16:45;6;5;
70570;PMS5003;58135;50.948;-1.458;2022-08-23T07:19:10;7;7;
70570;PMS5003;58135;50.948;-1.458;2022-08-23T07:21:35;8;6;
70570;PMS5003;58135;50.948;-1.458;2022-08-23T07:24:01;10;9;
70570;PMS5003;58135;50.948;-1.458;2022-08-23T07:26:27;6;5;
70570;PMS5003;58135;50.948;-1.458;2022-08-23T07:28:52;6;5;
70570;PMS5003;58135;50.948;-1.458;2022-08-23T07:31:17;6;6;
70570;PMS5003;58135;50.948;-1.458;2022-08-23T07:33:43;8;8;
70570;PMS5003;58135;50.948;-1.458;2022-08-23T07:36:08;7;7;
70570;PMS5003;58135;50.948;-1.458;2022-08-23T07:38:39;9;8;
70570;PMS5003;58135;50.948;-1.458;2022-08-23T07:41:00;7;7;
70570;PMS5003;58135;50.948;-1.458;2022-08-23T07:43:26;6;6;
70570;PMS5003;58135;50.948;-1.458;2022-08-23T07:45:50;8;7;
70570;PMS5003;58135;50.948;-1.458;2022-08-23T07:48:15;7;7;
70570;PMS5003;58135;50.948;-1.458;2022-08-23T07:50:41;8;8;
70570;PMS5003;58135;50.948;-1.458;2022-08-23T07:53:07;10;9;
70570;PMS5003;58135;50.948;-1.458;2022-08-23T07:55:32;8;8;
70570;PMS5003;58135;50.948;-1.458;2022-08-23T07:57:59;7;7;
70570;PMS5003;58135;50.948;-1.458;2022-08-23T08:00:23;8;7;
70570;PMS5003;58135;50.948;-1.458;2022-08-23T08:02:48;7;7;
70570;PMS5003;58135;50.948;-1.458;2022-08-23T08:05:23;7;6;
70570;PMS5003;58135;50.948;-1.458;2022-08-23T08:10:05;8;7;
70570;PMS5003;58135;50.948;-1.458;2022-08-23T08:12:30;7;7;
70570;PMS5003;58135;50.948;-1.458;2022-08-23T08:15:02;7;7;
70570;PMS5003;58135;50.948;-1.458;2022-08-23T08:17:27;7;7;
70570;PMS5003;58135;50.948;-1.458;2022-08-23T08:19:47;7;7;
70570;PMS5003;58135;50.948;-1.458;2022-08-23T08:22:12;8;8;
70570;PMS5003;58135;50.948;-1.458;2022-08-23T08:24:38;6;6;
70570;PMS5003;58135;50.948;-1.458;2022-08-23T08:27:08;8;8;
70570;PMS5003;58135;50.948;-1.458;2022-08-23T08:29:33;7;6;
70570;PMS5003;58135;50.948;-1.458;2022-08-23T08:31:54;9;9;
70570;PMS5003;58135;50.948;-1.458;2022-08-23T08:34:30;8;7;
70570;PMS5003;58135;50.948;-1.458;2022-08-23T08:36:45;7;6;
70570;PMS5003;58135;50.948;-1.458;2022-08-23T08:39:12;9;8;
70570;PMS5003;58135;50.948;-1.458;2022-08-23T08:41:45;8;7;
70570;PMS5003;58135;50.948;-1.458;2022-08-23T08:44:02;8;8;
70570;PMS5003;58135;50.948;-1.458;2022-08-23T08:46:32;9;8;
70570;PMS5003;58135;50.948;-1.458;2022-08-23T08:48:52;11;11;
70570;PMS5003;58135;50.948;-1.458;2022-08-23T08:51:22;9;9;
70570;PMS5003;58135;50.948;-1.458;2022-08-23T08:53:43;8;8;
70570;PMS5003;58135;50.948;-1.458;2022-08-23T08:56:10;8;7;
70570;PMS5003;58135;50.948;-1.458;2022-08-23T08:58:39;8;7;
70570;PMS5003;58135;50.948;-1.458;2022-08-23T09:01:01;7;6;
70570;PMS5003;58135;50.948;-1.458;2022-08-23T09:03:26;5;4;
70570;PMS5003;58135;50.948;-1.458;2022-08-23T09:05:51;4;4;
70570;PMS5003;58135;50.948;-1.458;2022-08-23T09:08:18;6;6;
70570;PMS5003;58135;50.948;-1.458;2022-08-23T09:10:46;6;6;
70570;PMS5003;58135;50.948;-1.458;2022-08-23T09:15:33;6;5;
70570;PMS5003;58135;50.948;-1.458;2022-08-23T09:18:00;2;2;
70570;PMS5003;58135;50.948;-1.458;2022-08-23T09:20:24;2;2;
70570;PMS5003;58135;50.948;-1.458;2022-08-23T09:22:49;3;2;
70570;PMS5003;58135;50.948;-1.458;2022-08-23T09:25:14;3;3;
70570;PMS5003;58135;50.948;-1.458;2022-08-23T09:27:39;2;2;
70570;PMS5003;58135;50.948;-1.458;2022-08-23T09:30:05;1;1;
70570;PMS5003;58135;50.948;-1.458;2022-08-23T09:32:30;1;1;
70570;PMS5003;58135;50.948;-1.458;2022-08-23T09:37:22;2;2;
70570;PMS5003;58135;50.948;-1.458;2022-08-23T09:39:47;1;1;
70570;PMS5003;58135;50.948;-1.458;2022-08-23T09:44:38;0;0;
70570;PMS5003;58135;50.948;-1.458;2022-08-23T09:47:04;1;1;
70570;PMS5003;58135;50.948;-1.458;2022-08-23T09:49:29;1;1;
70570;PMS5003;58135;50.948;-1.458;2022-08-23T09:51:54;1;1;
70570;PMS5003;58135;50.948;-1.458;2022-08-23T09:54:20;0;0;
70570;PMS5003;58135;50.948;-1.458;2022-08-23T09:56:49;0;0;
70570;PMS5003;58135;50.948;-1.458;2022-08-23T09:59:19;0;0;
70570;PMS5003;58135;50.948;-1.458;2022-08-23T10:01:35;0;0;
70570;PMS5003;58135;50.948;-1.458;2022-08-23T10:06:27;0;0;
70570;PMS5003;58135;50.948;-1.458;2022-08-23T10:08:52;0;0;
70570;PMS5003;58135;50.948;-1.458;2022-08-23T10:11:18;0;0;
70570;PMS5003;58135;50.948;-1.458;2022-08-23T10:13:43;0;0;
70570;PMS5003;58135;50.948;-1.458;2022-08-23T10:16:10;1;1;
70570;PMS5003;58135;50.948;-1.458;2022-08-23T10:18:39;0;0;
70570;PMS5003;58135;50.948;-1.458;2022-08-23T10:21:00;1;0;
70570;PMS5003;58135;50.948;-1.458;2022-08-23T10:23:33;0;0;
70570;PMS5003;58135;50.948;-1.458;2022-08-23T10:25:57;0;0;
70570;PMS5003;58135;50.948;-1.458;2022-08-23T10:28:17;1;1;
70570;PMS5003;58135;50.948;-1.458;2022-08-23T10:30:44;0;0;
70570;PMS5003;58135;50.948;-1.458;2022-08-23T10:33:07;0;0;
70570;PMS5003;58135;50.948;-1.458;2022-08-23T10:35:34;0;0;
70570;PMS5003;58135;50.948;-1.458;2022-08-23T10:38:08;0;0;
70570;PMS5003;58135;50.948;-1.458;2022-08-23T10:40:23;0;0;
70570;PMS5003;58135;50.948;-1.458;2022-08-23T10:42:51;0;0;
70570;PMS5003;58135;50.948;-1.458;2022-08-23T10:45:15;1;1;
70570;PMS5003;58135;50.948;-1.458;2022-08-23T10:47:45;1;1;
70570;PMS5003;58135;50.948;-1.458;2022-08-23T10:50:07;0;0;
70570;PMS5003;58135;50.948;-1.458;2022-08-23T10:52:31;1;1;
70570;PMS5003;58135;50.948;-1.458;2022-08-23T10:54:56;0;0;
70570;PMS5003;58135;50.948;-1.458;2022-08-23T10:57:21;3;2;
70570;PMS5003;58135;50.948;-1.458;2022-08-23T10:59:46;2;2;
70570;PMS5003;58135;50.948;-1.458;2022-08-23T11:02:27;0;0;
70570;PMS5003;58135;50.948;-1.458;2022-08-23T11:04:37;1;1;
70570;PMS5003;58135;50.948;-1.458;2022-08-23T11:09:29;1;1;
70570;PMS5003;58135;50.948;-1.458;2022-08-23T11:14:24;2;2;
70570;PMS5003;58135;50.948;-1.458;2022-08-23T11:16:44;2;2;
70570;PMS5003;58135;50.948;-1.458;2022-08-23T11:19:11;1;1;
70570;PMS5003;58135;50.948;-1.458;2022-08-23T11:28:51;3;3;
70570;PMS5003;58135;50.948;-1.458;2022-08-23T11:31:18;2;2;
70570;PMS5003;58135;50.948;-1.458;2022-08-23T11:33:42;2;2;
70570;PMS5003;58135;50.948;-1.458;2022-08-23T11:36:14;1;1;
70570;PMS5003;58135;50.948;-1.458;2022-08-23T11:40:58;2;2;
70570;PMS5003;58135;50.948;-1.458;2022-08-23T11:43:25;2;2;
70570;PMS5003;58135;50.948;-1.458;2022-08-23T11:45:49;2;2;
70570;PMS5003;58135;50.948;-1.458;2022-08-23T11:48:16;2;2;
70570;PMS5003;58135;50.948;-1.458;2022-08-23T11:50:43;1;1;
70570;PMS5003;58135;50.948;-1.458;2022-08-23T11:53:08;1;1;
70570;PMS5003;58135;50.948;-1.458;2022-08-23T11:55:36;1;1;
70570;PMS5003;58135;50.948;-1.458;2022-08-23T11:58:01;2;2;
70570;PMS5003;58135;50.948;-1.458;2022-08-23T12:00:22;0;0;
70570;PMS5003;58135;50.948;-1.458;2022-08-23T12:02:50;1;1;
70570;PMS5003;58135;50.948;-1.458;2022-08-23T12:05:18;0;0;
70570;PMS5003;58135;50.948;-1.458;2022-08-23T12:07:42;1;1;
70570;PMS5003;58135;50.948;-1.458;2022-08-23T12:10:04;2;1;
70570;PMS5003;58135;50.948;-1.458;2022-08-23T12:12:30;1;1;
70570;PMS5003;58135;50.948;-1.458;2022-08-23T12:14:55;1;1;
70570;PMS5003;58135;50.948;-1.458;2022-08-23T12:19:47;1;1;
70570;PMS5003;58135;50.948;-1.458;2022-08-23T12:22:11;1;1;
70570;PMS5003;58135;50.948;-1.458;2022-08-23T12:24:40;2;2;
70570;PMS5003;58135;50.948;-1.458;2022-08-23T12:27:05;3;3;
70570;PMS5003;58135;50.948;-1.458;2022-08-23T12:29:29;1;1;
70570;PMS5003;58135;50.948;-1.458;2022-08-23T12:31:58;0;0;
70570;PMS5003;58135;50.948;-1.458;2022-08-23T12:34:19;0;0;
70570;PMS5003;58135;50.948;-1.458;2022-08-23T12:36:44;1;1;
70570;PMS5003;58135;50.948;-1.458;2022-08-23T12:39:18;1;1;
70570;PMS5003;58135;50.948;-1.458;2022-08-23T12:41:35;1;1;
70570;PMS5003;58135;50.948;-1.458;2022-08-23T12:44:00;0;0;
70570;PMS5003;58135;50.948;-1.458;2022-08-23T12:46:31;1;1;
70570;PMS5003;58135;50.948;-1.458;2022-08-23T12:48:50;1;1;
70570;PMS5003;58135;50.948;-1.458;2022-08-23T12:51:15;2;2;
70570;PMS5003;58135;50.948;-1.458;2022-08-23T12:53:42;2;2;
70570;PMS5003;58135;50.948;-1.458;2022-08-23T12:56:07;1;1;
70570;PMS5003;58135;50.948;-1.458;2022-08-23T12:58:33;1;1;
70570;PMS5003;58135;50.948;-1.458;2022-08-23T13:00:57;2;2;
70570;PMS5003;58135;50.948;-1.458;2022-08-23T13:03:23;1;1;
70570;PMS5003;58135;50.948;-1.458;2022-08-23T13:05:50;1;1;
70570;PMS5003;58135;50.948;-1.458;2022-08-23T13:08:14;2;1;
70570;PMS5003;58135;50.948;-1.458;2022-08-23T13:10:39;1;1;
70570;PMS5003;58135;50.948;-1.458;2022-08-23T13:13:04;1;1;
70570;PMS5003;58135;50.948;-1.458;2022-08-23T13:15:38;1;0;
70570;PMS5003;58135;50.948;-1.458;2022-08-23T13:17:57;1;1;
70570;PMS5003;58135;50.948;-1.458;2022-08-23T13:20:21;2;2;
70570;PMS5003;58135;50.948;-1.458;2022-08-23T13:22:56;1;1;
70570;PMS5003;58135;50.948;-1.458;2022-08-23T13:27:48;1;1;
70570;PMS5003;58135;50.948;-1.458;2022-08-23T13:30:03;0;0;
70570;PMS5003;58135;50.948;-1.458;2022-08-23T13:32:29;3;3;
70570;PMS5003;58135;50.948;-1.458;2022-08-23T13:34:53;1;1;
70570;PMS5003;58135;50.948;-1.458;2022-08-23T13:37:26;1;1;
70570;PMS5003;58135;50.948;-1.458;2022-08-23T13:39:44;1;1;
70570;PMS5003;58135;50.948;-1.458;2022-08-23T13:42:09;2;2;
70570;PMS5003;58135;50.948;-1.458;2022-08-23T13:44:34;1;1;
70570;PMS5003;58135;50.948;-1.458;2022-08-23T13:47:00;1;1;
70570;PMS5003;58135;50.948;-1.458;2022-08-23T13:49:25;2;2;
70570;PMS5003;58135;50.948;-1.458;2022-08-23T13:54:16;1;1;
70570;PMS5003;58135;50.948;-1.458;2022-08-23T13:56:43;1;1;
70570;PMS5003;58135;50.948;-1.458;2022-08-23T13:59:18;2;1;
70570;PMS5003;58135;50.948;-1.458;2022-08-23T14:01:32;2;2;
70570;PMS5003;58135;50.948;-1.458;2022-08-23T14:03:57;2;2;
70570;PMS5003;58135;50.948;-1.458;2022-08-23T14:06:28;3;3;
70570;PMS5003;58135;50.948;-1.458;2022-08-23T14:08:48;2;2;
70570;PMS5003;58135;50.948;-1.458;2022-08-23T14:11:13;3;3;
70570;PMS5003;58135;50.948;-1.458;2022-08-23T14:13:39;3;3;
70570;PMS5003;58135;50.948;-1.458;2022-08-23T14:16:06;1;1;
70570;PMS5003;58135;50.948;-1.458;2022-08-23T14:18:30;4;3;
70570;PMS5003;58135;50.948;-1.458;2022-08-23T14:20:55;2;2;
70570;PMS5003;58135;50.948;-1.458;2022-08-23T14:23:20;3;2;
70570;PMS5003;58135;50.948;-1.458;2022-08-23T14:25:46;2;2;
70570;PMS5003;58135;50.948;-1.458;2022-08-23T14:28:11;2;2;
70570;PMS5003;58135;50.948;-1.458;2022-08-23T14:30:37;3;3;
70570;PMS5003;58135;50.948;-1.458;2022-08-23T14:33:02;2;2;
70570;PMS5003;58135;50.948;-1.458;2022-08-23T14:35:29;2;2;
70570;PMS5003;58135;50.948;-1.458;2022-08-23T14:37:53;2;2;
70570;PMS5003;58135;50.948;-1.458;2022-08-23T14:40:18;1;1;
70570;PMS5003;58135;50.948;-1.458;2022-08-23T14:42:44;3;3;
70570;PMS5003;58135;50.948;-1.458;2022-08-23T14:45:10;3;3;
70570;PMS5003;58135;50.948;-1.458;2022-08-23T14:47:35;2;2;
70570;PMS5003;58135;50.948;-1.458;2022-08-23T14:50:00;4;4;
70570;PMS5003;58135;50.948;-1.458;2022-08-23T14:52:26;2;2;
70570;PMS5003;58135;50.948;-1.458;2022-08-23T14:54:51;0;0;
70570;PMS5003;58135;50.948;-1.458;2022-08-23T14:57:16;1;1;
70570;PMS5003;58135;50.948;-1.458;2022-08-23T14:59:41;2;2;
70570;PMS5003;58135;50.948;-1.458;2022-08-23T15:02:07;1;1;
70570;PMS5003;58135;50.948;-1.458;2022-08-23T15:04:32;1;0;
70570;PMS5003;58135;50.948;-1.458;2022-08-23T15:06:58;1;1;
70570;PMS5003;58135;50.948;-1.458;2022-08-23T15:09:23;1;1;
70570;PMS5003;58135;50.948;-1.458;2022-08-23T15:11:49;0;0;
70570;PMS5003;58135;50.948;-1.458;2022-08-23T15:14:14;2;2;
70570;PMS5003;58135;50.948;-1.458;2022-08-23T15:16:40;0;0;
70570;PMS5003;58135;50.948;-1.458;2022-08-23T15:19:04;1;1;
70570;PMS5003;58135;50.948;-1.458;2022-08-23T15:21:31;1;1;
70570;PMS5003;58135;50.948;-1.458;2022-08-23T15:23:55;1;0;
70570;PMS5003;58135;50.948;-1.458;2022-08-23T15:26:22;0;0;
70570;PMS5003;58135;50.948;-1.458;2022-08-23T15:28:47;0;0;
70570;PMS5003;58135;50.948;-1.458;2022-08-23T15:31:12;0;0;
70570;PMS5003;58135;50.948;-1.458;2022-08-23T15:33:37;0;0;
70570;PMS5003;58135;50.948;-1.458;2022-08-23T15:36:03;0;0;
70570;PMS5003;58135;50.948;-1.458;2022-08-23T15:38:29;1;1;
70570;PMS5003;58135;50.948;-1.458;2022-08-23T15:40:53;0;0;
70570;PMS5003;58135;50.948;-1.458;2022-08-23T15:43:19;1;1;
70570;PMS5003;58135;50.948;-1.458;2022-08-23T15:45:44;0;0;
70570;PMS5003;58135;50.948;-1.458;2022-08-23T15:48:11;0;0;
70570;PMS5003;58135;50.948;-1.458;2022-08-23T15:50:35;2;2;
70570;PMS5003;58135;50.948;-1.458;2022-08-23T15:53:00;2;2;
70570;PMS5003;58135;50.948;-1.458;2022-08-23T15:55:27;2;1;
70570;PMS5003;58135;50.948;-1.458;2022-08-23T15:57:51;3;2;
70570;PMS5003;58135;50.948;-1.458;2022-08-23T16:00:17;2;2;
70570;PMS5003;58135;50.948;-1.458;2022-08-23T16:02:42;1;1;
70570;PMS5003;58135;50.948;-1.458;2022-08-23T16:05:07;3;3;
70570;PMS5003;58135;50.948;-1.458;2022-08-23T16:07:33;3;3;
70570;PMS5003;58135;50.948;-1.458;2022-08-23T16:09:58;3;3;
70570;PMS5003;58135;50.948;-1.458;2022-08-23T16:12:23;4;4;
70570;PMS5003;58135;50.948;-1.458;2022-08-23T16:14:49;4;4;
70570;PMS5003;58135;50.948;-1.458;2022-08-23T16:17:14;4;3;
70570;PMS5003;58135;50.948;-1.458;2022-08-23T16:19:40;5;4;
70570;PMS5003;58135;50.948;-1.458;2022-08-23T16:22:05;7;6;
70570;PMS5003;58135;50.948;-1.458;2022-08-23T16:24:31;5;5;
70570;PMS5003;58135;50.948;-1.458;2022-08-23T16:26:56;6;4;
70570;PMS5003;58135;50.948;-1.458;2022-08-23T16:29:22;6;5;
70570;PMS5003;58135;50.948;-1.458;2022-08-23T16:31:47;6;6;
70570;PMS5003;58135;50.948;-1.458;2022-08-23T16:34:14;4;4;
70570;PMS5003;58135;50.948;-1.458;2022-08-23T16:36:39;4;4;
70570;PMS5003;58135;50.948;-1.458;2022-08-23T16:39:03;5;4;
70570;PMS5003;58135;50.948;-1.458;2022-08-23T16:41:28;5;5;
70570;PMS5003;58135;50.948;-1.458;2022-08-23T16:43:54;5;5;
70570;PMS5003;58135;50.948;-1.458;2022-08-23T16:46:19;5;5;
70570;PMS5003;58135;50.948;-1.458;2022-08-23T16:48:45;5;5;